Time;durP1;ratioP1;P1;durP2;ratioP2;P2;SDS_P1;SDS_P2;PMS_P1;PMS_P2;Temp;Humidity;BMP_temperature;BMP_pressure;BME280_temperature;BME280_humidity;BME280_pressure;Samples;Min_cycle;Max_cycle;Signal;HPM_P1;HPM_P2
2021/05/02 00:01:44;;;;;;;1.95;0.80;;;;;;;;;;5028294;28;20202;-71
2021/05/02 00:04:11;;;;;;;0.20;0.20;;;;;;;;;;5028372;28;20185;-72
2021/05/02 00:06:37;;;;;;;1.10;1.05;;;;;;;;;;5010699;28;20163;-72
2021/05/02 00:09:04;;;;;;;0.45;0.22;;;;;;;;;;5028157;28;20158;-72
2021/05/02 00:11:30;;;;;;;1.55;1.45;;;;;;;;;;5028151;28;20173;-72
2021/05/02 00:13:57;;;;;;;31.20;1.00;;;;;;;;;;5028048;28;20190;-72
2021/05/02 00:16:23;;;;;;;0.75;0.63;;;;;;;;;;5010440;28;20239;-72
2021/05/02 00:18:49;;;;;;;2.33;1.65;;;;;;;;;;5028142;28;20174;-72
2021/05/02 00:21:15;;;;;;;5.03;1.75;;;;;;;;;;5027813;28;20177;-72
2021/05/02 00:23:42;;;;;;;0.70;0.70;;;;;;;;;;5027916;28;20193;-72
2021/05/02 00:26:09;;;;;;;0.43;0.43;;;;;;;;;;5027768;28;20166;-72
2021/05/02 00:28:36;;;;;;;3.95;1.75;;;;;;;;;;5028043;28;20227;-72
2021/05/02 00:31:06;;;;;;;4.07;1.50;;;;;;;;;;5027746;28;20189;-72
2021/05/02 00:33:35;;;;;;;1.25;1.15;;;;;;;;;;5027831;28;20182;-72
2021/05/02 00:36:05;;;;;;;1.17;0.93;;;;;;;;;;5027876;28;20182;-72
2021/05/02 00:38:34;;;;;;;1.08;0.88;;;;;;;;;;5027870;28;20170;-72
2021/05/02 00:41:04;;;;;;;0.88;0.88;;;;;;;;;;5027892;28;20154;-72
2021/05/02 00:43:55;;;;;;;0.75;0.75;;;;;;;;;;5027718;28;20244;-72
2021/05/02 00:46:41;;;;;;;15.95;1.48;;;;;;;;;;5010056;28;20193;-72
2021/05/02 00:49:20;;;;;;;0.85;0.68;;;;;;;;;;5017388;28;20209;-72
2021/05/02 00:51:47;;;;;;;0.60;0.60;;;;;;;;;;5027674;28;20181;-72
2021/05/02 00:54:18;;;;;;;1.60;1.27;;;;;;;;;;5029509;28;20186;-72
2021/05/02 00:56:57;;;;;;;1.05;1.05;;;;;;;;;;5014235;28;20190;-72
2021/05/02 00:59:28;;;;;;;3.72;2.47;;;;;;;;;;5031888;28;20169;-72
2021/05/02 01:01:55;;;;;;;1.85;1.67;;;;;;;;;;5031588;28;20253;-71
2021/05/02 01:04:24;;;;;;;0.68;0.63;;;;;;;;;;5031373;28;20249;-72
2021/05/02 01:06:52;;;;;;;4.30;0.85;;;;;;;;;;5031433;28;20292;-71
2021/05/02 01:09:18;;;;;;;0.20;0.20;;;;;;;;;;5031141;28;20162;-72
2021/05/02 01:11:49;;;;;;;0.65;0.65;;;;;;;;;;5031075;28;20170;-72
2021/05/02 01:14:19;;;;;;;4.75;2.17;;;;;;;;;;5030939;28;20225;-72
2021/05/02 01:16:47;;;;;;;0.20;0.20;;;;;;;;;;5013450;28;20190;-72
2021/05/02 01:19:14;;;;;;;4.65;1.33;;;;;;;;;;5013252;28;20208;-72
2021/05/02 01:21:41;;;;;;;2.92;1.52;;;;;;;;;;5012684;28;20217;-72
2021/05/02 01:24:08;;;;;;;0.73;0.73;;;;;;;;;;5030646;28;20202;-72
2021/05/02 01:26:47;;;;;;;0.32;0.20;;;;;;;;;;5030750;28;20209;-72
2021/05/02 01:29:15;;;;;;;0.22;0.22;;;;;;;;;;5013194;28;20158;-72
2021/05/02 01:31:42;;;;;;;0.28;0.28;;;;;;;;;;5030313;28;20162;-71
2021/05/02 01:34:08;;;;;;;0.50;0.50;;;;;;;;;;5030565;28;20584;-72
2021/05/02 01:36:34;;;;;;;0.30;0.30;;;;;;;;;;5030564;28;20166;-72
2021/05/02 01:39:02;;;;;;;0.68;0.68;;;;;;;;;;5012839;28;20166;-72
2021/05/02 01:41:29;;;;;;;0.88;0.82;;;;;;;;;;5027310;28;20261;-72
2021/05/02 01:43:55;;;;;;;1.27;0.57;;;;;;;;;;5030257;28;20166;-74
2021/05/02 01:46:41;;;;;;;0.63;0.63;;;;;;;;;;5029963;28;20236;-71
2021/05/02 01:49:09;;;;;;;0.52;0.52;;;;;;;;;;5029952;28;20205;-71
2021/05/02 01:51:37;;;;;;;0.40;0.40;;;;;;;;;;5043961;28;20189;-71
2021/05/02 01:54:03;;;;;;;0.73;0.70;;;;;;;;;;5045232;28;20597;-71
2021/05/02 01:56:31;;;;;;;0.90;0.82;;;;;;;;;;5029836;28;20242;-71
2021/05/02 01:58:59;;;;;;;0.40;0.38;;;;;;;;;;5045198;28;20174;-71
2021/05/02 02:01:27;;;;;;;2.10;1.60;;;;;;;;;;5029916;28;20194;-71
2021/05/02 02:03:54;;;;;;;4.20;1.65;;;;;;;;;;5030031;28;20166;-71
2021/05/02 02:06:21;;;;;;;1.55;1.42;;;;;;;;;;5029026;28;20162;-71
2021/05/02 02:08:47;;;;;;;0.40;0.40;;;;;;;;;;5029571;28;20170;-71
2021/05/02 02:11:13;;;;;;;1.30;0.80;;;;;;;;;;5044604;28;20202;-72
2021/05/02 02:13:40;;;;;;;0.52;0.52;;;;;;;;;;5029686;28;20181;-71
2021/05/02 02:16:07;;;;;;;0.88;0.85;;;;;;;;;;5029592;28;20196;-72
2021/05/02 02:18:34;;;;;;;0.80;0.43;;;;;;;;;;5029711;28;20162;-72
2021/05/02 02:21:01;;;;;;;1.52;1.05;;;;;;;;;;5029492;28;20202;-72
2021/05/02 02:23:31;;;;;;;1.65;0.85;;;;;;;;;;5029612;28;20202;-72
2021/05/02 02:25:58;;;;;;;1.55;0.98;;;;;;;;;;5029572;28;20190;-72
2021/05/02 02:28:25;;;;;;;0.45;0.32;;;;;;;;;;5029531;28;20645;-72
2021/05/02 02:31:00;;;;;;;0.20;0.20;;;;;;;;;;5029313;28;20193;-72
2021/05/02 02:33:30;;;;;;;0.73;0.73;;;;;;;;;;5029190;28;20265;-72
2021/05/02 02:35:57;;;;;;;1.58;1.30;;;;;;;;;;5029163;28;20170;-72
2021/05/02 02:38:24;;;;;;;1.50;1.40;;;;;;;;;;5011646;28;20170;-72
2021/05/02 02:40:51;;;;;;;2.40;1.63;;;;;;;;;;5011596;28;20201;-72
2021/05/02 02:43:22;;;;;;;0.35;0.35;;;;;;;;;;5011431;28;20197;-72
2021/05/02 02:45:51;;;;;;;2.05;1.77;;;;;;;;;;5029135;28;20166;-72
2021/05/02 02:48:20;;;;;;;0.98;0.98;;;;;;;;;;5028974;28;20162;-72
2021/05/02 02:50:48;;;;;;;1.52;1.05;;;;;;;;;;5011419;28;20208;-71
2021/05/02 02:53:15;;;;;;;1.73;1.60;;;;;;;;;;5028962;28;20632;-72
2021/05/02 02:55:42;;;;;;;0.45;0.45;;;;;;;;;;5029040;28;20162;-72
2021/05/02 02:58:10;;;;;;;0.32;0.32;;;;;;;;;;5028886;28;20170;-72
2021/05/02 03:00:37;;;;;;;0.77;0.47;;;;;;;;;;5028823;28;20204;-72
2021/05/02 03:03:13;;;;;;;15.65;1.45;;;;;;;;;;5028872;28;20190;-71
2021/05/02 03:05:40;;;;;;;0.57;0.57;;;;;;;;;;5028846;28;20659;-72
2021/05/02 03:08:08;;;;;;;0.88;0.57;;;;;;;;;;5028744;28;20169;-72
2021/05/02 03:10:35;;;;;;;0.43;0.43;;;;;;;;;;5028466;28;20229;-72
2021/05/02 03:13:01;;;;;;;1.88;1.08;;;;;;;;;;5028494;28;20162;-73
2021/05/02 03:15:28;;;;;;;0.77;0.77;;;;;;;;;;5028696;28;20531;-72
2021/05/02 03:18:06;;;;;;;0.25;0.25;;;;;;;;;;5010628;28;20174;-71
2021/05/02 03:20:36;;;;;;;0.03;0.03;;;;;;;;;;5028345;28;20267;-71
2021/05/02 03:23:12;;;;;;;0.73;0.73;;;;;;;;;;4994386;28;20293;-73
2021/05/02 03:25:47;;;;;;;0.28;0.28;;;;;;;;;;5008430;28;20162;-71
2021/05/02 03:28:14;;;;;;;0.10;0.10;;;;;;;;;;5008634;28;20169;-72
2021/05/02 03:30:42;;;;;;;1.00;0.60;;;;;;;;;;5008632;28;20201;-72
2021/05/02 03:33:10;;;;;;;1.05;0.95;;;;;;;;;;4990922;28;20205;-72
2021/05/02 03:35:38;;;;;;;1.15;1.05;;;;;;;;;;5008671;28;20170;-72
2021/05/02 03:38:07;;;;;;;0.43;0.43;;;;;;;;;;5008501;28;20159;-72
2021/05/02 03:40:34;;;;;;;2.42;2.28;;;;;;;;;;5008384;28;20198;-70
2021/05/02 03:43:00;;;;;;;0.25;0.25;;;;;;;;;;5008349;28;20254;-71
2021/05/02 03:45:26;;;;;;;2.00;0.77;;;;;;;;;;5008479;28;20163;-71
2021/05/02 03:47:52;;;;;;;0.43;0.43;;;;;;;;;;4990965;28;20194;-71
2021/05/02 03:50:18;;;;;;;0.15;0.15;;;;;;;;;;5008440;28;20575;-71
2021/05/02 03:52:45;;;;;;;0.35;0.35;;;;;;;;;;5008273;28;20167;-71
2021/05/02 03:55:11;;;;;;;0.60;0.60;;;;;;;;;;5008215;28;20197;-72
2021/05/02 03:57:37;;;;;;;0.25;0.25;;;;;;;;;;5008334;28;20226;-71
2021/05/02 04:00:04;;;;;;;0.32;0.32;;;;;;;;;;5008355;28;20178;-70
2021/05/02 04:02:30;;;;;;;10.52;1.33;;;;;;;;;;5008112;28;20194;-70
2021/05/02 04:04:56;;;;;;;0.30;0.30;;;;;;;;;;4988826;28;20186;-71
2021/05/02 04:07:22;;;;;;;0.20;0.20;;;;;;;;;;5008551;28;20163;-71
2021/05/02 04:09:49;;;;;;;0.65;0.65;;;;;;;;;;5008299;28;20151;-71
2021/05/02 04:12:16;;;;;;;1.17;0.80;;;;;;;;;;5007927;28;20178;-72
2021/05/02 04:14:43;;;;;;;24.65;1.83;;;;;;;;;;4990238;28;20182;-72
2021/05/02 04:17:10;;;;;;;0.30;0.30;;;;;;;;;;5007764;28;20218;-72
2021/05/02 04:19:37;;;;;;;1.55;1.45;;;;;;;;;;5007462;28;20229;-71
2021/05/02 04:22:04;;;;;;;0.65;0.65;;;;;;;;;;5015790;28;20225;-71
2021/05/02 04:24:31;;;;;;;0.10;0.10;;;;;;;;;;5025507;28;20170;-71
2021/05/02 04:26:57;;;;;;;0.50;0.50;;;;;;;;;;5019254;28;20257;-71
2021/05/02 04:29:24;;;;;;;0.85;0.85;;;;;;;;;;5029788;28;20162;-71
2021/05/02 04:31:51;;;;;;;11.27;5.65;;;;;;;;;;5031030;28;20271;-71
2021/05/02 04:34:18;;;;;;;1.83;1.60;;;;;;;;;;5031750;28;20170;-71
2021/05/02 04:36:45;;;;;;;0.43;0.43;;;;;;;;;;5014042;28;20194;-71
2021/05/02 04:39:11;;;;;;;0.10;0.10;;;;;;;;;;5030852;28;20201;-70
2021/05/02 04:41:37;;;;;;;1.13;1.05;;;;;;;;;;5030246;28;20204;-71
2021/05/02 04:44:03;;;;;;;1.00;0.47;;;;;;;;;;5030456;28;20192;-71
2021/05/02 04:46:29;;;;;;;0.17;0.17;;;;;;;;;;5012521;28;20177;-71
2021/05/02 04:48:56;;;;;;;0.45;0.45;;;;;;;;;;5030326;28;20181;-71
2021/05/02 04:51:22;;;;;;;0.35;0.35;;;;;;;;;;5030138;28;20194;-71
2021/05/02 04:53:49;;;;;;;1.80;1.42;;;;;;;;;;5030106;28;20170;-70
2021/05/02 04:56:15;;;;;;;0.82;0.82;;;;;;;;;;5009707;28;20173;-70
2021/05/02 04:58:42;;;;;;;0.40;0.40;;;;;;;;;;5029717;28;20701;-70
2021/05/02 05:01:09;;;;;;;3.08;0.80;;;;;;;;;;5029855;28;20206;-70
2021/05/02 05:03:35;;;;;;;1.05;0.68;;;;;;;;;;5029943;28;20202;-70
2021/05/02 05:06:02;;;;;;;0.20;0.20;;;;;;;;;;5012050;28;20194;-70
2021/05/02 05:08:28;;;;;;;0.10;0.10;;;;;;;;;;5029570;28;20200;-70
2021/05/02 05:10:54;;;;;;;0.73;0.45;;;;;;;;;;5011981;28;20669;-70
2021/05/02 05:13:21;;;;;;;0.20;0.20;;;;;;;;;;5011904;28;20237;-71
2021/05/02 05:15:47;;;;;;;0.47;0.47;;;;;;;;;;5029711;28;20554;-71
2021/05/02 05:18:14;;;;;;;1.50;1.20;;;;;;;;;;5029496;28;20186;-71
2021/05/02 05:20:40;;;;;;;0.10;0.10;;;;;;;;;;5027218;28;20197;-71
2021/05/02 05:23:06;;;;;;;2.55;0.30;;;;;;;;;;5013632;28;20289;-70
2021/05/02 05:25:33;;;;;;;0.38;0.38;;;;;;;;;;5010081;28;20254;-71
2021/05/02 05:27:59;;;;;;;0.10;0.10;;;;;;;;;;4992081;28;20249;-72
2021/05/02 05:30:25;;;;;;;0.35;0.30;;;;;;;;;;5009383;28;20218;-72
2021/05/02 05:32:51;;;;;;;2.85;1.17;;;;;;;;;;5009548;28;20177;-71
2021/05/02 05:35:17;;;;;;;0.10;0.10;;;;;;;;;;4991896;28;20182;-71
2021/05/02 05:37:44;;;;;;;0.30;0.30;;;;;;;;;;4990126;28;20701;-72
2021/05/02 05:40:10;;;;;;;7.00;2.75;;;;;;;;;;4985349;28;20214;-71
2021/05/02 05:42:37;;;;;;;0.43;0.43;;;;;;;;;;5009270;28;20195;-70
2021/05/02 05:45:03;;;;;;;0.30;0.30;;;;;;;;;;5009383;28;20167;-70
2021/05/02 05:47:29;;;;;;;0.47;0.47;;;;;;;;;;5009291;28;20267;-70
2021/05/02 05:49:56;;;;;;;0.10;0.10;;;;;;;;;;5006594;28;20665;-72
2021/05/02 05:52:22;;;;;;;0.63;0.63;;;;;;;;;;5009237;28;20167;-72
2021/05/02 05:54:49;;;;;;;0.10;0.10;;;;;;;;;;4991479;28;20171;-72
2021/05/02 05:57:15;;;;;;;0.10;0.10;;;;;;;;;;4991474;28;20202;-72
2021/05/02 05:59:41;;;;;;;0.00;0.00;;;;;;;;;;5009003;28;20208;-69
2021/05/02 06:02:07;;;;;;;0.10;0.10;;;;;;;;;;5008867;28;20214;-70
2021/05/02 06:04:33;;;;;;;0.05;0.05;;;;;;;;;;5009067;28;20226;-69
2021/05/02 06:07:01;;;;;;;0.10;0.10;;;;;;;;;;5009016;28;20167;-68
2021/05/02 06:09:27;;;;;;;0.10;0.10;;;;;;;;;;5008824;28;20650;-68
2021/05/02 06:11:54;;;;;;;0.10;0.10;;;;;;;;;;5008864;28;20274;-68
2021/05/02 06:14:20;;;;;;;0.10;0.10;;;;;;;;;;4990557;28;20193;-69
2021/05/02 06:16:46;;;;;;;0.10;0.10;;;;;;;;;;4991079;28;20158;-68
2021/05/02 06:19:12;;;;;;;0.10;0.10;;;;;;;;;;5008288;28;20179;-69
2021/05/02 06:21:38;;;;;;;0.00;0.00;;;;;;;;;;4993356;28;20209;-69
2021/05/02 06:24:05;;;;;;;0.10;0.10;;;;;;;;;;5028298;28;20174;-68
2021/05/02 06:26:31;;;;;;;0.10;0.10;;;;;;;;;;5028442;28;20185;-69
2021/05/02 06:28:57;;;;;;;0.10;0.10;;;;;;;;;;5028198;28;20162;-67
2021/05/02 06:31:24;;;;;;;0.10;0.10;;;;;;;;;;5029755;28;20166;-68
2021/05/02 06:33:50;;;;;;;0.08;0.08;;;;;;;;;;5028334;28;20171;-68
2021/05/02 06:36:16;;;;;;;0.10;0.10;;;;;;;;;;5012908;28;20205;-68
2021/05/02 06:38:43;;;;;;;0.00;0.00;;;;;;;;;;5010567;28;20170;-68
2021/05/02 06:41:10;;;;;;;0.10;0.10;;;;;;;;;;5027551;28;20260;-67
2021/05/02 06:43:36;;;;;;;0.10;0.10;;;;;;;;;;5025448;28;20205;-68
2021/05/02 06:46:02;;;;;;;0.10;0.10;;;;;;;;;;5029470;28;20275;-68
2021/05/02 06:48:28;;;;;;;5.78;0.65;;;;;;;;;;5028017;28;20170;-67
2021/05/02 06:50:55;;;;;;;0.10;0.10;;;;;;;;;;5027756;28;20166;-68
2021/05/02 06:53:21;;;;;;;0.05;0.05;;;;;;;;;;5027735;28;20192;-67
2021/05/02 06:55:47;;;;;;;0.00;0.00;;;;;;;;;;5029962;28;20671;-67
2021/05/02 06:58:13;;;;;;;0.10;0.10;;;;;;;;;;5027798;28;20173;-68
2021/05/02 07:00:40;;;;;;;0.00;0.00;;;;;;;;;;5042535;28;20209;-68
2021/05/02 07:03:06;;;;;;;0.10;0.10;;;;;;;;;;5048401;28;20196;-67
2021/05/02 07:05:33;;;;;;;0.10;0.10;;;;;;;;;;5048399;28;20154;-68
2021/05/02 07:07:59;;;;;;;0.10;0.10;;;;;;;;;;5021742;28;20178;-68
2021/05/02 07:10:27;;;;;;;0.52;0.40;;;;;;;;;;5009144;28;20200;-67
2021/05/02 07:12:53;;;;;;;0.10;0.10;;;;;;;;;;5027431;28;20213;-68
2021/05/02 07:15:19;;;;;;;2.70;1.15;;;;;;;;;;5028322;28;20170;-68
2021/05/02 07:17:45;;;;;;;0.10;0.10;;;;;;;;;;5028322;28;20242;-69
2021/05/02 07:20:13;;;;;;;0.10;0.10;;;;;;;;;;5037908;28;20215;-68
2021/05/02 07:22:40;;;;;;;0.10;0.10;;;;;;;;;;5030082;28;20293;-68
2021/05/02 07:25:07;;;;;;;0.10;0.10;;;;;;;;;;5047578;28;20272;-67
2021/05/02 07:27:33;;;;;;;0.10;0.10;;;;;;;;;;5047832;28;20196;-67
2021/05/02 07:29:59;;;;;;;0.10;0.10;;;;;;;;;;5047916;28;20162;-68
2021/05/02 07:32:26;;;;;;;0.10;0.10;;;;;;;;;;5015201;28;20264;-67
2021/05/02 07:34:52;;;;;;;0.10;0.10;;;;;;;;;;5027958;28;20189;-67
2021/05/02 07:37:18;;;;;;;0.00;0.00;;;;;;;;;;5017943;28;20174;-67
2021/05/02 07:39:44;;;;;;;0.10;0.10;;;;;;;;;;5008019;28;20182;-68
2021/05/02 07:42:10;;;;;;;0.10;0.10;;;;;;;;;;4990224;28;20261;-68
2021/05/02 07:44:37;;;;;;;0.10;0.10;;;;;;;;;;5007307;28;20339;-67
2021/05/02 07:47:03;;;;;;;0.10;0.10;;;;;;;;;;5007882;28;20163;-67
2021/05/02 07:49:29;;;;;;;0.10;0.10;;;;;;;;;;5016185;28;20226;-68
2021/05/02 07:51:55;;;;;;;0.10;0.10;;;;;;;;;;5026888;28;20200;-68
2021/05/02 07:54:21;;;;;;;0.00;0.00;;;;;;;;;;5027616;28;20181;-68
2021/05/02 07:56:48;;;;;;;0.10;0.10;;;;;;;;;;5027757;28;20154;-68
2021/05/02 07:59:14;;;;;;;0.10;0.10;;;;;;;;;;5027565;28;20221;-68
2021/05/02 08:01:40;;;;;;;0.00;0.00;;;;;;;;;;5009560;28;20202;-69
2021/05/02 08:04:06;;;;;;;0.00;0.00;;;;;;;;;;5026836;28;20178;-68
2021/05/02 08:06:32;;;;;;;0.10;0.10;;;;;;;;;;5027601;28;20166;-67
2021/05/02 08:08:58;;;;;;;0.10;0.10;;;;;;;;;;5009804;28;20182;-67
2021/05/02 08:11:25;;;;;;;0.10;0.10;;;;;;;;;;5027357;28;20190;-68
2021/05/02 08:13:51;;;;;;;0.10;0.10;;;;;;;;;;5027266;28;20640;-68
2021/05/02 08:16:19;;;;;;;0.10;0.10;;;;;;;;;;5001251;28;20189;-67
2021/05/02 08:18:45;;;;;;;0.10;0.10;;;;;;;;;;5026868;28;20224;-67
2021/05/02 08:21:12;;;;;;;0.10;0.10;;;;;;;;;;5011050;28;20212;-69
2021/05/02 08:23:38;;;;;;;0.10;0.10;;;;;;;;;;5008745;28;20201;-68
2021/05/02 08:26:05;;;;;;;0.10;0.10;;;;;;;;;;5009250;28;20205;-68
2021/05/02 08:28:31;;;;;;;0.10;0.10;;;;;;;;;;5008984;28;20190;-68
2021/05/02 08:30:57;;;;;;;0.10;0.10;;;;;;;;;;5025443;28;20951;-68
2021/05/02 08:33:23;;;;;;;0.10;0.10;;;;;;;;;;5007509;28;20263;-68
2021/05/02 08:35:49;;;;;;;0.93;0.85;;;;;;;;;;5025506;28;20154;-68
2021/05/02 08:38:16;;;;;;;0.10;0.10;;;;;;;;;;5025381;28;20234;-68
2021/05/02 08:40:42;;;;;;;0.10;0.10;;;;;;;;;;5006131;28;20186;-69
2021/05/02 08:43:09;;;;;;;0.10;0.10;;;;;;;;;;5019016;28;20233;-68
2021/05/02 08:45:36;;;;;;;0.10;0.10;;;;;;;;;;5001642;28;20347;-71
2021/05/02 08:48:03;;;;;;;0.10;0.10;;;;;;;;;;5017104;28;20243;-71
2021/05/02 08:50:30;;;;;;;0.10;0.10;;;;;;;;;;5022640;28;20593;-71
2021/05/02 08:52:56;;;;;;;0.10;0.10;;;;;;;;;;5026764;28;20264;-71
2021/05/02 08:55:22;;;;;;;0.00;0.00;;;;;;;;;;5026106;28;20194;-71
2021/05/02 08:57:48;;;;;;;0.10;0.10;;;;;;;;;;5009409;28;20216;-71
2021/05/02 09:00:15;;;;;;;0.10;0.10;;;;;;;;;;5026684;28;20221;-71
2021/05/02 09:02:52;;;;;;;0.10;0.10;;;;;;;;;;5026507;28;20221;-75
2021/05/02 09:05:18;;;;;;;0.05;0.05;;;;;;;;;;5024350;28;20252;-75
2021/05/02 09:07:46;;;;;;;0.10;0.10;;;;;;;;;;5025988;28;20238;-75
2021/05/02 09:10:12;;;;;;;0.10;0.10;;;;;;;;;;5025957;28;20197;-74
2021/05/02 09:12:40;;;;;;;0.10;0.10;;;;;;;;;;5006440;28;20196;-74
2021/05/02 09:15:20;;;;;;;0.47;0.28;;;;;;;;;;5027920;28;20150;-74
2021/05/02 09:18:18;;;;;;;0.10;0.10;;;;;;;;;;5029579;28;20169;-75
2021/05/02 09:20:42;;;;;;;0.00;0.00;;;;;;;;;;5028578;28;20234;-76
2021/05/02 09:23:08;;;;;;;0.38;0.38;;;;;;;;;;5027963;28;20240;-87
2021/05/02 09:25:44;;;;;;;0.20;0.20;;;;;;;;;;5030225;28;20189;-89
2021/05/02 09:28:11;;;;;;;0.22;0.22;;;;;;;;;;5026272;28;20627;-83
2021/05/02 09:30:37;;;;;;;0.00;0.00;;;;;;;;;;5010189;28;20202;-83
2021/05/02 09:33:03;;;;;;;0.00;0.00;;;;;;;;;;5009157;28;20583;-77
2021/05/02 09:35:34;;;;;;;0.00;0.00;;;;;;;;;;5029386;28;20166;-78
2021/05/02 09:38:13;;;;;;;1.25;0.30;;;;;;;;;;5011393;28;20175;-77
2021/05/02 09:40:51;;;;;;;0.10;0.10;;;;;;;;;;5029093;28;20219;-78
2021/05/02 09:43:36;;;;;;;0.00;0.00;;;;;;;;;;5026250;28;20208;-81
2021/05/02 09:46:33;;;;;;;0.10;0.10;;;;;;;;;;5028781;28;20166;-75
2021/05/02 09:49:01;;;;;;;0.00;0.00;;;;;;;;;;5027283;28;20209;-79
2021/05/02 09:51:28;;;;;;;1.55;1.48;;;;;;;;;;5009748;28;20194;-79
2021/05/02 09:54:08;;;;;;;0.20;0.20;;;;;;;;;;5014740;28;20181;-77
2021/05/02 09:56:34;;;;;;;0.10;0.10;;;;;;;;;;5024643;28;20240;-74
2021/05/02 09:59:01;;;;;;;0.10;0.10;;;;;;;;;;5027867;28;20193;-75
2021/05/02 10:01:27;;;;;;;0.10;0.10;;;;;;;;;;5027558;28;20186;-71
2021/05/02 10:03:53;;;;;;;0.10;0.10;;;;;;;;;;5027173;28;20217;-72
2021/05/02 10:06:30;;;;;;;0.00;0.00;;;;;;;;;;5009687;28;20170;-72
2021/05/02 10:08:57;;;;;;;0.10;0.10;;;;;;;;;;5024143;28;20217;-70
2021/05/02 10:11:25;;;;;;;0.28;0.28;;;;;;;;;;5028508;28;20161;-72
2021/05/02 10:13:51;;;;;;;0.10;0.10;;;;;;;;;;5010794;28;20170;-71
2021/05/02 10:16:17;;;;;;;0.00;0.00;;;;;;;;;;5011018;28;20178;-70
2021/05/02 10:18:44;;;;;;;0.10;0.10;;;;;;;;;;5027025;28;20233;-73
2021/05/02 10:21:10;;;;;;;0.10;0.10;;;;;;;;;;5024334;28;20163;-73
2021/05/02 10:23:37;;;;;;;0.00;0.00;;;;;;;;;;5027200;28;20262;-75
2021/05/02 10:26:05;;;;;;;0.20;0.20;;;;;;;;;;5026267;28;20166;-74
2021/05/02 10:28:33;;;;;;;0.20;0.20;;;;;;;;;;5006820;28;20194;-75
2021/05/02 10:31:00;;;;;;;0.10;0.10;;;;;;;;;;5027309;28;20220;-72
2021/05/02 10:33:38;;;;;;;0.00;0.00;;;;;;;;;;5026603;28;20189;-71
2021/05/02 10:36:06;;;;;;;0.00;0.00;;;;;;;;;;5020942;28;20197;-72
2021/05/02 10:38:50;;;;;;;0.08;0.08;;;;;;;;;;5006227;28;20212;-73
2021/05/02 10:41:23;;;;;;;0.00;0.00;;;;;;;;;;5024288;28;20185;-73
2021/05/02 10:43:49;;;;;;;0.10;0.10;;;;;;;;;;5026465;28;20205;-73
2021/05/02 10:46:34;;;;;;;0.00;0.00;;;;;;;;;;5007643;28;20177;-72
2021/05/02 10:49:00;;;;;;;0.00;0.00;;;;;;;;;;5027018;28;20267;-72
2021/05/02 10:51:28;;;;;;;0.00;0.00;;;;;;;;;;5009834;28;20182;-71
2021/05/02 10:54:01;;;;;;;0.00;0.00;;;;;;;;;;5028024;28;20154;-71
2021/05/02 10:56:43;;;;;;;0.10;0.10;;;;;;;;;;4990037;28;20182;-74
2021/05/02 10:59:09;;;;;;;0.00;0.00;;;;;;;;;;5007744;28;20202;-73
2021/05/02 11:01:35;;;;;;;0.10;0.10;;;;;;;;;;5006772;28;20178;-73
2021/05/02 11:04:02;;;;;;;0.10;0.10;;;;;;;;;;4988496;28;20225;-72
2021/05/02 11:06:41;;;;;;;0.10;0.10;;;;;;;;;;4988289;28;20562;-73
2021/05/02 11:09:11;;;;;;;0.40;0.38;;;;;;;;;;5022827;28;20181;-72
2021/05/02 11:11:39;;;;;;;0.10;0.10;;;;;;;;;;5009104;28;20200;-73
2021/05/02 11:14:08;;;;;;;0.00;0.00;;;;;;;;;;5026535;28;20242;-72
2021/05/02 11:16:34;;;;;;;0.10;0.10;;;;;;;;;;5027308;28;20688;-72
2021/05/02 11:19:01;;;;;;;0.10;0.10;;;;;;;;;;5028144;28;20158;-75
2021/05/02 11:21:51;;;;;;;0.10;0.10;;;;;;;;;;5010285;28;20226;-74
2021/05/02 11:24:17;;;;;;;0.10;0.10;;;;;;;;;;5010485;28;20194;-74
2021/05/02 11:29:36;;;;;;;0.10;0.10;;;;;;;;;;5027921;28;20197;-72
2021/05/02 11:32:04;;;;;;;0.00;0.00;;;;;;;;;;5009873;28;20237;-72
2021/05/02 11:34:48;;;;;;;0.03;0.03;;;;;;;;;;5027683;28;20154;-76
2021/05/02 11:37:50;;;;;;;0.13;0.13;;;;;;;;;;5024689;28;20221;-75
2021/05/02 11:40:19;;;;;;;0.10;0.10;;;;;;;;;;4965599;29;20195;-75
2021/05/02 11:42:52;;;;;;;0.00;0.00;;;;;;;;;;4942646;29;20366;-74
2021/05/02 11:45:19;;;;;;;0.10;0.10;;;;;;;;;;4961876;29;20195;-73
2021/05/02 11:47:45;;;;;;;0.10;0.10;;;;;;;;;;4946109;29;20211;-74
2021/05/02 11:50:11;;;;;;;0.10;0.10;;;;;;;;;;4966844;29;20273;-74
2021/05/02 11:52:44;;;;;;;0.10;0.10;;;;;;;;;;4963689;29;20240;-73
2021/05/02 11:55:26;;;;;;;0.10;0.10;;;;;;;;;;4947468;29;20192;-73
2021/05/02 11:57:52;;;;;;;0.10;0.10;;;;;;;;;;4949159;29;20219;-75
2021/05/02 12:00:28;;;;;;;0.10;0.10;;;;;;;;;;4966783;29;20196;-73
2021/05/02 12:02:54;;;;;;;0.00;0.00;;;;;;;;;;4965668;29;20203;-72
2021/05/02 12:05:21;;;;;;;0.05;0.05;;;;;;;;;;4950589;29;20176;-72
2021/05/02 12:07:47;;;;;;;0.00;0.00;;;;;;;;;;4967092;29;20204;-73
2021/05/02 12:10:20;;;;;;;0.43;0.43;;;;;;;;;;4967131;29;20215;-73
2021/05/02 12:12:46;;;;;;;0.10;0.10;;;;;;;;;;4965738;29;20188;-75
2021/05/02 12:15:12;;;;;;;0.10;0.10;;;;;;;;;;5022747;28;20205;-77
2021/05/02 12:17:50;;;;;;;0.10;0.10;;;;;;;;;;5029468;28;20170;-76
2021/05/02 12:20:21;;;;;;;0.00;0.00;;;;;;;;;;5042420;28;20209;-74
2021/05/02 12:22:48;;;;;;;0.10;0.10;;;;;;;;;;5047996;28;20668;-76
2021/05/02 12:25:15;;;;;;;0.00;0.00;;;;;;;;;;5023809;28;20181;-71
2021/05/02 12:27:53;;;;;;;0.08;0.08;;;;;;;;;;5002909;28;20622;-73
2021/05/02 12:30:20;;;;;;;0.10;0.10;;;;;;;;;;5030577;28;20192;-71
2021/05/02 12:32:46;;;;;;;0.10;0.10;;;;;;;;;;5009286;28;20190;-72
2021/05/02 12:35:12;;;;;;;0.10;0.10;;;;;;;;;;5008348;28;20676;-72
2021/05/02 12:37:38;;;;;;;0.10;0.10;;;;;;;;;;5009546;28;20173;-71
2021/05/02 12:40:06;;;;;;;0.10;0.10;;;;;;;;;;5027084;28;20162;-73
2021/05/02 12:42:39;;;;;;;0.10;0.10;;;;;;;;;;5005990;28;20234;-72
2021/05/02 12:45:07;;;;;;;0.00;0.00;;;;;;;;;;4994619;28;20208;-72
2021/05/02 12:47:39;;;;;;;0.00;0.00;;;;;;;;;;5017719;28;20187;-72
2021/05/02 12:50:06;;;;;;;0.10;0.10;;;;;;;;;;5028645;28;20284;-73
2021/05/02 12:52:35;;;;;;;0.10;0.10;;;;;;;;;;5029280;28;20169;-73
2021/05/02 12:55:20;;;;;;;0.13;0.13;;;;;;;;;;5003871;28;20206;-72
2021/05/02 12:57:51;;;;;;;0.10;0.10;;;;;;;;;;5030445;28;20228;-72
2021/05/02 13:00:20;;;;;;;0.10;0.10;;;;;;;;;;5030720;28;20252;-71
2021/05/02 13:02:47;;;;;;;0.52;0.50;;;;;;;;;;5010474;28;20246;-71
2021/05/02 13:05:16;;;;;;;0.10;0.10;;;;;;;;;;5011512;28;20233;-72
2021/05/02 13:07:43;;;;;;;0.10;0.10;;;;;;;;;;5024581;28;20193;-72
2021/05/02 13:10:19;;;;;;;0.05;0.05;;;;;;;;;;5008715;28;20182;-73
2021/05/02 13:13:02;;;;;;;0.10;0.10;;;;;;;;;;5011356;28;20328;-74
2021/05/02 13:15:32;;;;;;;0.32;0.17;;;;;;;;;;5027540;28;20201;-75
2021/05/02 13:18:10;;;;;;;0.00;0.00;;;;;;;;;;5027890;28;20159;-75
2021/05/02 13:20:45;;;;;;;0.10;0.10;;;;;;;;;;5027183;28;20177;-78
2021/05/02 13:23:11;;;;;;;0.10;0.10;;;;;;;;;;5029979;28;20271;-79
2021/05/02 13:25:38;;;;;;;0.10;0.10;;;;;;;;;;5012745;28;20340;-79
2021/05/02 13:28:08;;;;;;;0.10;0.10;;;;;;;;;;5029939;28;20173;-82
2021/05/02 13:30:35;;;;;;;0.10;0.10;;;;;;;;;;5029878;28;20150;-80
2021/05/02 13:33:06;;;;;;;0.10;0.10;;;;;;;;;;5014281;28;20178;-79
2021/05/02 13:35:37;;;;;;;0.10;0.10;;;;;;;;;;5032058;28;20193;-76
2021/05/02 13:38:04;;;;;;;0.10;0.10;;;;;;;;;;5013189;28;20170;-83
2021/05/02 13:40:31;;;;;;;0.10;0.10;;;;;;;;;;5011125;28;20220;-80
2021/05/02 13:42:58;;;;;;;0.10;0.10;;;;;;;;;;5010787;28;20203;-76
2021/05/02 13:45:25;;;;;;;0.50;0.50;;;;;;;;;;5029353;28;20216;-79
2021/05/02 13:47:51;;;;;;;0.10;0.10;;;;;;;;;;5010382;28;20200;-85
2021/05/02 13:50:18;;;;;;;0.35;0.35;;;;;;;;;;5012195;28;20182;-79
2021/05/02 13:52:45;;;;;;;0.10;0.10;;;;;;;;;;5010321;28;20189;-81
2021/05/02 13:55:11;;;;;;;0.10;0.10;;;;;;;;;;5028195;28;20171;-82
2021/05/02 13:57:38;;;;;;;0.00;0.00;;;;;;;;;;5010375;28;20209;-80
2021/05/02 14:00:05;;;;;;;0.10;0.10;;;;;;;;;;5028297;28;20162;-80
2021/05/02 14:02:31;;;;;;;0.10;0.10;;;;;;;;;;5009620;28;20300;-76
2021/05/02 14:04:57;;;;;;;0.10;0.10;;;;;;;;;;5011223;28;20362;-77
2021/05/02 14:07:23;;;;;;;0.00;0.00;;;;;;;;;;5011879;28;20178;-78
2021/05/02 14:09:50;;;;;;;0.10;0.10;;;;;;;;;;5029748;28;20652;-77
2021/05/02 14:12:16;;;;;;;0.10;0.10;;;;;;;;;;5009777;28;20182;-78
2021/05/02 14:14:43;;;;;;;0.10;0.10;;;;;;;;;;5027554;28;20629;-79
2021/05/02 14:17:09;;;;;;;0.10;0.10;;;;;;;;;;5028103;28;20170;-77
2021/05/02 14:19:35;;;;;;;0.10;0.10;;;;;;;;;;5010760;28;20198;-79
2021/05/02 14:22:02;;;;;;;0.10;0.10;;;;;;;;;;5009233;28;20224;-73
2021/05/02 14:24:28;;;;;;;0.15;0.15;;;;;;;;;;5027512;28;20182;-74
2021/05/02 14:26:57;;;;;;;0.50;0.50;;;;;;;;;;5027140;28;20173;-72
2021/05/02 14:29:24;;;;;;;0.10;0.10;;;;;;;;;;5010098;28;20205;-73
2021/05/02 14:31:50;;;;;;;0.00;0.00;;;;;;;;;;5028874;28;20180;-76
2021/05/02 14:34:17;;;;;;;0.28;0.28;;;;;;;;;;5011441;28;20218;-74
2021/05/02 14:36:53;;;;;;;0.10;0.10;;;;;;;;;;5011462;28;20169;-75
2021/05/02 14:39:20;;;;;;;0.10;0.10;;;;;;;;;;5029060;28;20214;-76
2021/05/02 14:41:46;;;;;;;0.45;0.43;;;;;;;;;;5029106;28;20173;-76
2021/05/02 14:44:12;;;;;;;0.35;0.35;;;;;;;;;;5010920;28;20186;-75
2021/05/02 14:46:39;;;;;;;0.10;0.10;;;;;;;;;;5011205;28;20250;-76
2021/05/02 14:49:06;;;;;;;0.10;0.10;;;;;;;;;;5006317;28;20190;-75
2021/05/02 14:51:33;;;;;;;0.10;0.10;;;;;;;;;;5025412;28;20331;-77
2021/05/02 14:53:59;;;;;;;0.20;0.20;;;;;;;;;;5027810;28;20173;-78